Time;durP1;ratioP1;P1;durP2;ratioP2;P2;SDS_P1;SDS_P2;PMS_P1;PMS_P2;Temp;Humidity;BMP_temperature;BMP_pressure;BME280_temperature;BME280_humidity;BME280_pressure;Samples;Min_cycle;Max_cycle;Signal;HPM_P1;HPM_P2
2023/02/17 00:02:17;;;;;;;207.77;175.73;;;7.90;97.10;;;;;;5015749;28;20292;-89
2023/02/17 00:04:44;;;;;;;215.97;177.00;;;7.90;97.10;;;;;;5015982;28;20284;-89
2023/02/17 00:07:09;;;;;;;243.10;192.47;;;7.90;97.10;;;;;;5017238;28;20300;-90
2023/02/17 00:09:36;;;;;;;231.77;177.70;;;7.90;97.10;;;;;;5015758;28;20604;-90
2023/02/17 00:12:01;;;;;;;210.07;172.03;;;7.90;97.10;;;;;;5015631;28;20228;-89
2023/02/17 00:14:27;;;;;;;236.23;188.77;;;7.90;97.10;;;;;;5015712;28;20174;-89
2023/02/17 00:16:52;;;;;;;227.40;184.03;;;8.00;97.10;;;;;;5015817;28;20205;-89
2023/02/17 00:19:23;;;;;;;217.03;170.53;;;8.00;97.10;;;;;;5015499;28;20177;-89
2023/02/17 00:21:51;;;;;;;222.27;174.17;;;8.00;97.10;;;;;;5015417;28;20304;-89
2023/02/17 00:24:17;;;;;;;240.53;183.67;;;8.00;97.10;;;;;;5015703;28;20174;-89
2023/02/17 00:26:42;;;;;;;239.00;185.67;;;8.10;97.10;;;;;;5015703;28;20189;-89
2023/02/17 00:29:08;;;;;;;235.03;179.73;;;8.00;97.10;;;;;;5015006;28;20200;-89
2023/02/17 00:31:33;;;;;;;229.60;180.33;;;8.10;97.10;;;;;;5015595;28;20241;-90
2023/02/17 00:33:59;;;;;;;235.40;184.53;;;8.20;97.10;;;;;;5016859;28;20185;-88
2023/02/17 00:36:25;;;;;;;196.77;162.27;;;8.10;97.10;;;;;;5015329;28;20177;-89
2023/02/17 00:38:53;;;;;;;238.30;184.60;;;8.20;97.10;;;;;;5014937;28;20713;-89
2023/02/17 00:41:20;;;;;;;228.20;181.90;;;8.20;97.10;;;;;;5016674;28;20200;-90
2023/02/17 00:43:46;;;;;;;236.30;184.67;;;8.20;97.10;;;;;;5014788;28;20180;-89
2023/02/17 00:46:12;;;;;;;203.40;158.23;;;8.10;97.10;;;;;;5015838;28;20183;-90
2023/02/17 00:48:38;;;;;;;212.53;170.13;;;8.20;97.10;;;;;;5015591;28;20173;-91
2023/02/17 00:51:04;;;;;;;188.97;157.77;;;8.20;97.10;;;;;;5015448;28;20181;-91
2023/02/17 00:53:29;;;;;;;237.67;173.73;;;8.20;97.10;;;;;;5016616;28;20240;-91
2023/02/17 00:55:56;;;;;;;232.10;181.07;;;8.20;97.10;;;;;;5017434;28;20181;-91
2023/02/17 00:58:21;;;;;;;213.83;170.73;;;8.20;97.10;;;;;;5015898;28;20255;-91
2023/02/17 01:00:47;;;;;;;216.30;175.03;;;8.20;97.10;;;;;;5015415;28;20178;-91
2023/02/17 01:03:13;;;;;;;201.23;163.00;;;8.20;97.10;;;;;;5015022;28;20213;-92
2023/02/17 01:05:44;;;;;;;217.70;175.50;;;8.20;97.20;;;;;;5015530;28;20185;-91
2023/02/17 01:08:10;;;;;;;201.47;157.00;;;8.20;97.20;;;;;;5014960;28;20181;-91
2023/02/17 01:10:37;;;;;;;207.77;165.00;;;8.30;97.10;;;;;;5016025;28;20212;-89
2023/02/17 01:13:03;;;;;;;198.63;156.70;;;8.30;97.20;;;;;;5015512;28;20217;-91
2023/02/17 01:15:29;;;;;;;190.77;152.97;;;8.20;97.20;;;;;;5015775;28;20561;-90
2023/02/17 01:17:54;;;;;;;203.20;162.37;;;8.20;97.20;;;;;;5014799;28;20209;-90
2023/02/17 01:20:20;;;;;;;192.50;158.53;;;8.30;97.20;;;;;;5014809;28;20647;-89
2023/02/17 01:22:45;;;;;;;185.07;156.57;;;8.30;97.20;;;;;;5014707;28;20686;-91
2023/02/17 01:25:11;;;;;;;171.70;148.90;;;8.30;97.20;;;;;;5014860;28;20266;-90
2023/02/17 01:27:36;;;;;;;170.33;143.60;;;8.30;97.20;;;;;;5014891;28;20189;-91
2023/02/17 01:30:03;;;;;;;162.17;136.30;;;8.30;97.20;;;;;;5014478;28;20201;-91
2023/02/17 01:32:28;;;;;;;176.20;148.97;;;8.30;97.20;;;;;;4998249;28;20624;-90
2023/02/17 01:34:54;;;;;;;162.30;139.83;;;8.30;97.20;;;;;;5014418;28;20173;-90
2023/02/17 01:37:19;;;;;;;172.77;143.37;;;8.40;97.20;;;;;;5014323;28;20205;-91
2023/02/17 01:39:45;;;;;;;145.17;128.27;;;8.40;97.20;;;;;;5014298;28;20177;-90
2023/02/17 01:42:19;;;;;;;170.27;142.07;;;8.30;97.20;;;;;;5013410;28;20185;-90
2023/02/17 01:45:19;;;;;;;149.43;131.70;;;8.40;97.20;;;;;;5014139;28;20207;-90
2023/02/17 01:47:58;;;;;;;152.30;129.60;;;8.40;97.20;;;;;;5014180;28;20249;-91
2023/02/17 01:50:29;;;;;;;139.13;123.90;;;8.40;97.20;;;;;;5014369;28;20173;-90
2023/02/17 01:52:55;;;;;;;154.40;132.53;;;8.50;97.30;;;;;;5014286;28;20201;-90
2023/02/17 01:55:23;;;;;;;146.23;129.00;;;8.50;97.20;;;;;;5014297;28;20188;-90
2023/02/17 01:57:52;;;;;;;139.57;124.43;;;8.50;97.30;;;;;;5014284;28;20262;-90
2023/02/17 02:00:20;;;;;;;147.83;127.50;;;8.50;97.20;;;;;;5014154;28;20177;-90
2023/02/17 02:02:48;;;;;;;134.00;120.00;;;8.40;97.30;;;;;;5015338;28;20682;-90
2023/02/17 02:05:16;;;;;;;139.67;124.90;;;8.50;97.30;;;;;;5013866;28;20181;-90
2023/02/17 02:07:43;;;;;;;146.10;130.43;;;8.50;97.30;;;;;;5013764;28;20182;-90
2023/02/17 02:10:11;;;;;;;135.60;121.43;;;8.50;97.30;;;;;;5013678;28;20236;-90
2023/02/17 02:12:38;;;;;;;142.93;127.73;;;8.50;97.30;;;;;;5013788;28;20236;-90
2023/02/17 02:15:21;;;;;;;136.90;122.50;;;8.60;97.30;;;;;;5014067;28;20631;-90
2023/02/17 02:18:10;;;;;;;139.33;124.13;;;8.60;97.30;;;;;;5013632;28;20208;-91
2023/02/17 02:20:56;;;;;;;135.97;121.40;;;8.60;97.30;;;;;;5013660;28;20275;-91
2023/02/17 02:23:57;;;;;;;136.60;122.50;;;8.60;97.30;;;;;;5014706;28;20169;-91
2023/02/17 02:26:53;;;;;;;134.03;119.90;;;8.60;97.30;;;;;;5014753;28;20205;-91
2023/02/17 02:29:49;;;;;;;132.10;118.37;;;8.60;97.30;;;;;;5013672;28;20577;-91
2023/02/17 02:32:36;;;;;;;132.37;118.07;;;8.60;97.30;;;;;;5013327;28;20682;-91
2023/02/17 02:35:24;;;;;;;136.70;123.10;;;8.60;97.30;;;;;;5013977;28;20184;-89
2023/02/17 02:38:16;;;;;;;132.43;119.37;;;8.60;97.30;;;;;;5014932;28;20189;-91
2023/02/17 02:40:47;;;;;;;128.00;115.60;;;8.60;97.30;;;;;;5009074;28;20556;-91
2023/02/17 02:43:14;;;;;;;127.43;114.97;;;8.60;97.30;;;;;;5013384;28;20205;-90
2023/02/17 02:45:39;;;;;;;123.97;112.07;;;8.60;97.30;;;;;;5015291;28;20178;-90
2023/02/17 02:48:05;;;;;;;125.47;113.27;;;8.70;97.30;;;;;;5013446;28;20237;-89
2023/02/17 02:50:39;;;;;;;125.50;113.23;;;8.70;97.30;;;;;;5013368;28;20558;-89
2023/02/17 02:53:24;;;;;;;132.90;120.03;;;8.70;97.30;;;;;;5013143;28;20200;-91
2023/02/17 02:56:09;;;;;;;122.67;110.97;;;8.60;97.30;;;;;;5013617;28;20165;-91
2023/02/17 02:59:03;;;;;;;127.70;116.07;;;8.70;97.30;;;;;;5013324;28;20197;-92
2023/02/17 03:01:38;;;;;;;127.57;115.83;;;8.70;97.30;;;;;;5013178;28;20243;-89
2023/02/17 03:04:19;;;;;;;127.90;116.17;;;8.70;97.30;;;;;;5013966;28;20208;-91
2023/02/17 03:07:21;;;;;;;126.30;115.27;;;8.70;97.30;;;;;;5013252;28;20165;-88
2023/02/17 03:09:51;;;;;;;125.23;113.83;;;8.80;97.30;;;;;;5013295;28;20259;-91
2023/02/17 03:12:17;;;;;;;129.47;118.07;;;8.70;97.20;;;;;;5014788;28;20193;-91
2023/02/17 03:14:44;;;;;;;133.83;121.77;;;8.70;97.20;;;;;;5012855;28;20173;-91
2023/02/17 03:17:10;;;;;;;134.33;122.10;;;8.80;97.20;;;;;;5014113;28;20542;-92
2023/02/17 03:19:36;;;;;;;134.83;123.20;;;8.80;97.20;;;;;;5013010;28;20265;-90
2023/02/17 03:22:14;;;;;;;134.57;122.93;;;8.80;97.20;;;;;;5012832;28;20247;-91
2023/02/17 03:24:39;;;;;;;138.17;126.67;;;8.80;97.20;;;;;;5013424;28;20169;-91
2023/02/17 03:27:05;;;;;;;131.40;120.60;;;8.90;97.20;;;;;;5012664;28;20188;-91
2023/02/17 03:29:30;;;;;;;146.13;133.87;;;8.80;97.20;;;;;;5014341;28;20184;-92
2023/02/17 03:31:56;;;;;;;142.27;129.97;;;8.90;97.10;;;;;;5012926;28;20220;-89
2023/02/17 03:34:21;;;;;;;138.30;127.70;;;8.90;97.20;;;;;;5013107;28;20554;-89
2023/02/17 03:36:47;;;;;;;142.70;131.30;;;9.00;97.10;;;;;;5012843;28;20205;-91
2023/02/17 03:39:12;;;;;;;146.67;134.67;;;8.90;97.10;;;;;;5012810;28;20227;-92
2023/02/17 03:41:38;;;;;;;149.93;138.13;;;8.90;97.10;;;;;;5012576;28;20280;-91
2023/02/17 03:44:03;;;;;;;151.63;138.97;;;9.00;97.10;;;;;;5013845;28;20170;-91
2023/02/17 03:46:29;;;;;;;162.43;149.37;;;9.00;97.10;;;;;;5012562;28;20185;-91
2023/02/17 03:48:55;;;;;;;163.30;150.10;;;9.00;97.00;;;;;;5012486;28;20228;-91
2023/02/17 03:51:22;;;;;;;161.47;148.17;;;9.00;97.00;;;;;;5012933;28;20197;-90
2023/02/17 03:53:49;;;;;;;165.00;151.17;;;9.00;97.00;;;;;;5012740;28;20181;-91
2023/02/17 03:56:15;;;;;;;160.60;147.90;;;9.00;97.00;;;;;;5013745;28;20178;-93
2023/02/17 03:58:42;;;;;;;167.23;154.13;;;9.00;97.00;;;;;;5012536;28;20668;-90
2023/02/17 04:01:09;;;;;;;166.20;153.33;;;9.00;97.00;;;;;;5012579;28;20182;-90
2023/02/17 04:03:36;;;;;;;164.90;151.97;;;9.00;97.00;;;;;;5013576;28;20249;-91
2023/02/17 04:06:02;;;;;;;168.70;155.43;;;9.10;96.90;;;;;;5016327;28;20227;-91
2023/02/17 04:08:27;;;;;;;171.40;157.83;;;9.10;96.90;;;;;;5017386;28;20602;-91
2023/02/17 04:11:00;;;;;;;170.70;157.73;;;9.10;96.90;;;;;;5016978;28;20203;-90
2023/02/17 04:13:26;;;;;;;169.47;157.00;;;9.20;96.80;;;;;;5015747;28;20209;-90
2023/02/17 04:15:52;;;;;;;171.57;158.47;;;9.20;96.80;;;;;;5015749;28;20583;-91
2023/02/17 04:18:19;;;;;;;172.67;160.03;;;9.20;96.80;;;;;;5016024;28;20243;-90
2023/02/17 04:20:48;;;;;;;174.20;161.13;;;9.20;96.70;;;;;;5015600;28;20363;-90
2023/02/17 04:23:14;;;;;;;182.23;168.60;;;9.20;96.70;;;;;;5015376;28;20204;-90
2023/02/17 04:25:40;;;;;;;185.13;171.10;;;9.20;96.70;;;;;;5015483;28;20182;-90
2023/02/17 04:28:06;;;;;;;182.27;168.37;;;9.20;96.70;;;;;;5015326;28;20219;-91
2023/02/17 04:30:32;;;;;;;179.73;166.70;;;9.20;96.70;;;;;;5016428;28;20640;-91
2023/02/17 04:32:58;;;;;;;174.13;161.10;;;9.20;96.60;;;;;;5015441;28;20205;-91
2023/02/17 04:35:24;;;;;;;179.43;166.03;;;9.20;96.60;;;;;;5015426;28;20240;-91
2023/02/17 04:37:50;;;;;;;189.23;175.10;;;9.20;96.60;;;;;;5015444;28;20300;-90
2023/02/17 04:40:16;;;;;;;185.57;171.47;;;9.20;96.60;;;;;;5015694;28;20177;-91
2023/02/17 04:42:41;;;;;;;171.73;159.67;;;9.20;96.60;;;;;;5015057;28;20221;-90
2023/02/17 04:45:08;;;;;;;184.90;171.03;;;9.20;96.60;;;;;;5015262;28;20571;-91
2023/02/17 04:47:33;;;;;;;183.83;170.27;;;9.20;96.60;;;;;;5015163;28;20181;-91
2023/02/17 04:49:59;;;;;;;183.30;170.10;;;9.30;96.60;;;;;;5014923;28;20189;-90
2023/02/17 04:52:24;;;;;;;187.27;173.47;;;9.30;96.50;;;;;;5014812;28;20197;-91
2023/02/17 04:54:50;;;;;;;190.83;176.60;;;9.30;96.50;;;;;;5014917;28;20192;-91
2023/02/17 04:57:16;;;;;;;195.27;181.03;;;9.30;96.50;;;;;;5016048;28;20605;-90
2023/02/17 04:59:41;;;;;;;184.50;171.53;;;9.30;96.50;;;;;;5016132;28;20213;-91
2023/02/17 05:02:07;;;;;;;193.03;179.00;;;9.30;96.40;;;;;;5014568;28;20212;-91
2023/02/17 05:04:32;;;;;;;199.87;185.07;;;9.30;96.40;;;;;;5014591;28;20192;-91
2023/02/17 05:06:58;;;;;;;195.83;181.77;;;9.30;96.40;;;;;;5014529;28;20247;-90
2023/02/17 05:09:24;;;;;;;176.23;163.80;;;9.30;96.40;;;;;;5014558;28;20178;-90
2023/02/17 05:11:49;;;;;;;184.93;170.97;;;9.40;96.30;;;;;;5014547;28;20197;-91
2023/02/17 05:14:15;;;;;;;196.03;181.30;;;9.50;96.30;;;;;;5014386;28;20185;-90
2023/02/17 05:16:40;;;;;;;186.70;173.07;;;9.40;96.30;;;;;;5013007;28;20230;-91
2023/02/17 05:19:06;;;;;;;194.53;180.03;;;9.40;96.20;;;;;;5015547;28;20173;-90
2023/02/17 05:21:31;;;;;;;202.73;187.73;;;9.40;96.20;;;;;;5014331;28;20201;-90
2023/02/17 05:23:57;;;;;;;197.90;183.33;;;9.50;96.20;;;;;;5015474;28;20173;-91
2023/02/17 05:26:23;;;;;;;200.03;184.73;;;9.50;96.20;;;;;;5014432;28;20729;-92
2023/02/17 05:28:48;;;;;;;199.97;185.23;;;9.40;96.10;;;;;;5014157;28;20213;-91
2023/02/17 05:31:14;;;;;;;197.17;182.87;;;9.40;96.20;;;;;;5014406;28;20205;-90
2023/02/17 05:33:39;;;;;;;191.40;176.80;;;9.40;96.20;;;;;;5013962;28;20209;-91
2023/02/17 05:36:07;;;;;;;187.73;173.27;;;9.40;96.10;;;;;;5019121;28;20173;-93
2023/02/17 05:38:36;;;;;;;193.00;178.93;;;9.40;96.20;;;;;;5019632;28;20287;-90
2023/02/17 05:41:03;;;;;;;198.83;184.03;;;9.40;96.20;;;;;;5013573;28;20180;-90
2023/02/17 05:43:29;;;;;;;188.73;174.73;;;9.40;96.20;;;;;;5013856;28;20170;-90
2023/02/17 05:45:54;;;;;;;199.07;184.40;;;9.40;96.20;;;;;;5013797;28;20196;-91
2023/02/17 05:48:20;;;;;;;194.90;180.00;;;9.40;96.20;;;;;;5014603;28;20190;-91
2023/02/17 05:50:46;;;;;;;194.33;179.60;;;9.40;96.10;;;;;;5013637;28;20243;-90
2023/02/17 05:53:11;;;;;;;197.53;183.37;;;9.40;96.10;;;;;;5013666;28;20206;-90
2023/02/17 05:55:37;;;;;;;195.77;181.13;;;9.50;96.10;;;;;;5013655;28;20186;-91
2023/02/17 05:58:03;;;;;;;191.00;177.17;;;9.50;96.00;;;;;;5013705;28;20247;-90
2023/02/17 06:00:29;;;;;;;192.03;177.97;;;9.50;96.00;;;;;;5013673;28;20276;-90
2023/02/17 06:02:54;;;;;;;183.80;170.67;;;9.50;95.90;;;;;;5013554;28;20220;-90
2023/02/17 06:05:21;;;;;;;195.23;181.07;;;9.50;95.80;;;;;;5013714;28;20189;-91
2023/02/17 06:07:46;;;;;;;192.10;178.07;;;9.50;95.80;;;;;;5013469;28;20710;-90
2023/02/17 06:10:12;;;;;;;190.33;176.77;;;9.50;95.80;;;;;;5013724;28;20185;-91
2023/02/17 06:12:38;;;;;;;184.53;170.90;;;9.40;95.80;;;;;;5013288;28;20201;-92
2023/02/17 06:15:03;;;;;;;181.70;168.47;;;9.50;95.80;;;;;;5013285;28;20239;-91
2023/02/17 06:17:29;;;;;;;186.20;172.33;;;9.50;95.80;;;;;;5013283;28;20679;-90
2023/02/17 06:19:54;;;;;;;178.50;165.70;;;9.50;95.80;;;;;;5013158;28;20655;-90
2023/02/17 06:22:20;;;;;;;176.20;163.03;;;9.50;95.70;;;;;;5013251;28;20197;-91
2023/02/17 06:24:45;;;;;;;176.13;162.37;;;9.50;95.60;;;;;;5013263;28;20177;-90
2023/02/17 06:27:11;;;;;;;178.63;165.10;;;9.50;95.50;;;;;;5012963;28;20188;-91
2023/02/17 06:29:36;;;;;;;175.90;162.70;;;9.50;95.50;;;;;;5013493;28;20178;-90
2023/02/17 06:32:02;;;;;;;180.93;167.03;;;9.50;95.50;;;;;;5012936;28;20259;-91
2023/02/17 06:34:28;;;;;;;158.40;146.17;;;9.50;95.40;;;;;;5013426;28;20694;-90
2023/02/17 06:36:54;;;;;;;153.23;141.97;;;9.60;95.10;;;;;;5012960;28;20644;-91
2023/02/17 06:39:20;;;;;;;156.20;144.80;;;9.60;95.10;;;;;;5013189;28;20603;-91
2023/02/17 06:41:45;;;;;;;155.70;143.63;;;9.60;95.00;;;;;;5012834;28;20236;-91
2023/02/17 06:44:11;;;;;;;148.10;137.17;;;9.60;94.80;;;;;;5013389;28;20248;-90
2023/02/17 06:46:36;;;;;;;167.80;154.63;;;9.60;94.80;;;;;;5013282;28;20223;-90
2023/02/17 06:49:02;;;;;;;160.60;148.10;;;9.60;94.80;;;;;;5013122;28;20203;-91
2023/02/17 06:51:28;;;;;;;156.20;144.70;;;9.60;94.70;;;;;;5014000;28;20197;-91
2023/02/17 06:53:54;;;;;;;158.43;146.40;;;9.60;94.70;;;;;;5012842;28;20181;-91
2023/02/17 06:56:19;;;;;;;165.10;152.23;;;9.60;94.70;;;;;;5012810;28;20174;-91
2023/02/17 06:58:45;;;;;;;163.60;151.20;;;9.60;94.70;;;;;;5012410;28;20304;-90
2023/02/17 07:01:19;;;;;;;147.53;136.80;;;9.60;94.60;;;;;;5012621;28;20174;-91
2023/02/17 07:03:45;;;;;;;159.60;147.67;;;9.60;94.70;;;;;;5012672;28;20200;-90
2023/02/17 07:06:11;;;;;;;160.87;148.50;;;9.60;94.60;;;;;;5014089;28;20227;-91
2023/02/17 07:08:36;;;;;;;158.97;147.27;;;9.60;94.70;;;;;;5012779;28;20276;-91
2023/02/17 07:11:07;;;;;;;157.03;145.60;;;9.60;94.60;;;;;;5012383;28;20208;-90
2023/02/17 07:13:32;;;;;;;164.90;152.13;;;9.60;94.60;;;;;;5012634;28;20181;-90
2023/02/17 07:15:58;;;;;;;163.07;150.77;;;9.60;94.70;;;;;;5012591;28;20288;-90
2023/02/17 07:18:23;;;;;;;164.37;151.83;;;9.60;94.70;;;;;;5012437;28;20569;-91
2023/02/17 07:20:49;;;;;;;148.87;137.67;;;9.60;94.70;;;;;;5013845;28;20571;-90
2023/02/17 07:23:14;;;;;;;147.30;136.50;;;9.70;94.50;;;;;;5013587;28;20272;-91
2023/02/17 07:25:40;;;;;;;143.37;133.10;;;9.60;94.40;;;;;;5012483;28;20177;-90
2023/02/17 07:28:06;;;;;;;145.13;134.80;;;9.70;94.30;;;;;;5012196;28;20248;-91
2023/02/17 07:30:35;;;;;;;138.60;128.57;;;9.60;94.30;;;;;;5013002;28;20177;-92
2023/02/17 07:33:01;;;;;;;144.40;133.50;;;9.70;94.20;;;;;;5013912;28;20200;-91
2023/02/17 07:35:26;;;;;;;137.27;126.90;;;9.70;94.20;;;;;;5012694;28;20181;-92
2023/02/17 07:37:52;;;;;;;144.97;134.10;;;9.70;94.10;;;;;;5012674;28;20201;-91
2023/02/17 07:40:17;;;;;;;138.17;128.00;;;9.70;94.10;;;;;;5015382;28;20181;-91
2023/02/17 07:42:43;;;;;;;150.20;139.20;;;9.70;94.10;;;;;;5016552;28;20574;-90
2023/02/17 07:45:08;;;;;;;152.30;140.63;;;9.80;94.00;;;;;;5016327;28;20186;-90
2023/02/17 07:47:34;;;;;;;145.33;134.67;;;9.80;94.00;;;;;;5016760;28;20677;-91
2023/02/17 07:50:00;;;;;;;152.63;141.40;;;9.70;94.00;;;;;;5015743;28;20265;-90
2023/02/17 07:52:25;;;;;;;143.57;133.40;;;9.70;94.10;;;;;;5015956;28;20197;-91
2023/02/17 07:54:51;;;;;;;155.20;144.10;;;9.60;94.20;;;;;;5017011;28;20189;-90
2023/02/17 07:57:16;;;;;;;150.87;140.17;;;9.70;94.20;;;;;;5015629;28;20248;-91
2023/02/17 07:59:42;;;;;;;153.47;142.43;;;9.70;94.20;;;;;;5015718;28;20177;-90
2023/02/17 08:02:10;;;;;;;157.00;145.90;;;9.70;94.30;;;;;;5015606;28;20709;-91
2023/02/17 08:04:35;;;;;;;151.03;140.67;;;9.60;94.40;;;;;;5015896;28;20609;-90
2023/02/17 08:07:01;;;;;;;147.90;137.63;;;9.60;94.40;;;;;;5015761;28;20181;-91
2023/02/17 08:15:03;;;;;;;153.20;142.73;;;9.70;94.50;;;;;;5017319;28;20169;-90
2023/02/17 08:17:29;;;;;;;153.80;143.10;;;9.60;94.60;;;;;;5015455;28;20251;-89
2023/02/17 08:19:55;;;;;;;160.90;149.57;;;9.60;94.70;;;;;;5015391;28;20174;-91
2023/02/17 08:22:20;;;;;;;154.07;143.57;;;9.60;94.80;;;;;;5015613;28;20202;-89
2023/02/17 08:24:46;;;;;;;162.07;150.37;;;9.60;94.90;;;;;;5015442;28;20273;-91
2023/02/17 08:27:14;;;;;;;163.03;151.57;;;9.50;94.90;;;;;;5015342;28;20208;-90
2023/02/17 08:29:40;;;;;;;161.57;150.47;;;9.50;95.00;;;;;;5015386;28;20209;-90
2023/02/17 08:32:06;;;;;;;156.33;145.87;;;9.50;95.10;;;;;;5015906;28;20209;-91
2023/02/17 08:34:32;;;;;;;156.17;145.33;;;9.50;95.10;;;;;;5015592;28;20528;-91
2023/02/17 08:36:59;;;;;;;149.07;139.20;;;9.50;95.10;;;;;;5015690;28;20184;-91
2023/02/17 08:39:26;;;;;;;160.40;149.40;;;9.50;95.10;;;;;;5014793;28;20178;-91
2023/02/17 08:41:51;;;;;;;151.90;141.53;;;9.50;95.10;;;;;;5025948;28;20193;-90
2023/02/17 08:44:19;;;;;;;161.73;150.73;;;9.50;95.10;;;;;;5016450;28;20276;-89
2023/02/17 08:46:47;;;;;;;156.70;146.30;;;9.50;95.00;;;;;;5015144;28;20177;-91
2023/02/17 08:49:14;;;;;;;164.20;153.30;;;9.50;95.10;;;;;;5016151;28;20178;-89
2023/02/17 08:51:40;;;;;;;160.60;149.70;;;9.50;95.10;;;;;;5015059;28;20201;-92
2023/02/17 08:54:09;;;;;;;159.93;149.30;;;9.50;95.20;;;;;;5016546;28;20204;-91
2023/02/17 08:56:36;;;;;;;164.03;153.10;;;9.50;95.30;;;;;;5015196;28;20209;-91
2023/02/17 08:59:02;;;;;;;169.87;158.80;;;9.50;95.30;;;;;;5014627;28;20220;-89
2023/02/17 09:01:28;;;;;;;160.97;150.47;;;9.50;95.40;;;;;;5014838;28;20255;-89
2023/02/17 09:03:56;;;;;;;164.90;154.33;;;9.50;95.50;;;;;;5016077;28;20604;-92
2023/02/17 09:06:21;;;;;;;176.17;164.10;;;9.50;95.40;;;;;;5014666;28;20635;-91
2023/02/17 09:08:47;;;;;;;167.13;156.53;;;9.50;95.50;;;;;;5014707;28;20185;-91
2023/02/17 09:11:15;;;;;;;172.03;160.20;;;9.50;95.50;;;;;;5014744;28;20208;-90
2023/02/17 09:13:42;;;;;;;162.30;152.03;;;9.40;95.50;;;;;;5014640;28;20567;-91
2023/02/17 09:16:08;;;;;;;164.23;154.00;;;9.50;95.50;;;;;;5014459;28;20265;-90
2023/02/17 09:18:33;;;;;;;166.37;156.03;;;9.50;95.50;;;;;;5015493;28;20348;-92
2023/02/17 09:21:05;;;;;;;176.03;164.70;;;9.50;95.50;;;;;;5017426;28;20264;-90
2023/02/17 09:23:30;;;;;;;173.10;162.17;;;9.50;95.50;;;;;;5014818;28;20169;-89
2023/02/17 09:26:06;;;;;;;167.63;157.13;;;9.50;95.60;;;;;;5014441;28;20182;-88
2023/02/17 09:28:33;;;;;;;164.60;154.63;;;9.50;95.60;;;;;;5014172;28;20177;-91
2023/02/17 09:30:58;;;;;;;181.70;169.93;;;9.60;95.70;;;;;;5014487;28;20181;-91
2023/02/17 09:33:24;;;;;;;181.87;170.40;;;9.50;95.70;;;;;;5014585;28;20181;-90
2023/02/17 09:35:50;;;;;;;169.67;158.80;;;9.50;95.80;;;;;;5015080;28;20177;-90
2023/02/17 09:38:15;;;;;;;170.10;159.23;;;9.50;95.80;;;;;;5013740;28;20247;-89
2023/02/17 09:40:49;;;;;;;175.93;164.37;;;9.50;95.80;;;;;;5013800;28;20173;-91
2023/02/17 09:43:21;;;;;;;176.57;164.87;;;9.50;95.80;;;;;;5014559;28;20573;-88
2023/02/17 09:45:51;;;;;;;176.27;164.27;;;9.70;95.80;;;;;;5013694;28;20308;-89
2023/02/17 09:48:22;;;;;;;176.63;164.73;;;9.60;95.80;;;;;;5013905;28;20181;-88
2023/02/17 09:50:58;;;;;;;179.30;166.97;;;9.70;95.80;;;;;;5013471;28;20663;-88
2023/02/17 09:53:29;;;;;;;174.63;163.07;;;9.60;95.70;;;;;;5013570;28;20208;-88
2023/02/17 09:55:58;;;;;;;181.00;168.63;;;9.70;95.80;;;;;;5013493;28;20640;-88
2023/02/17 09:58:39;;;;;;;181.13;168.37;;;9.70;95.80;;;;;;5013555;28;20208;-88
2023/02/17 10:01:10;;;;;;;174.33;161.87;;;9.80;95.70;;;;;;5012936;28;20173;-89
2023/02/17 10:03:50;;;;;;;176.43;164.07;;;9.80;95.70;;;;;;5013530;28;20644;-88
2023/02/17 10:06:23;;;;;;;181.10;167.93;;;9.80;95.70;;;;;;5013354;28;20165;-89
2023/02/17 10:08:53;;;;;;;172.63;160.30;;;9.80;95.70;;;;;;5014388;28;20260;-88
2023/02/17 10:11:26;;;;;;;177.97;164.97;;;9.80;95.70;;;;;;5014433;28;20288;-89
2023/02/17 10:13:54;;;;;;;177.63;164.57;;;9.80;95.70;;;;;;5013209;28;20177;-88
2023/02/17 10:16:31;;;;;;;187.77;173.70;;;9.90;95.70;;;;;;5014637;28;20256;-88
2023/02/17 10:19:03;;;;;;;177.93;164.63;;;9.80;95.70;;;;;;5014265;28;20220;-89
2023/02/17 10:21:35;;;;;;;179.80;166.00;;;9.90;95.80;;;;;;5015552;28;20631;-88
2023/02/17 10:24:01;;;;;;;175.40;162.73;;;9.90;95.70;;;;;;5015239;28;20166;-89
2023/02/17 10:26:33;;;;;;;179.60;166.50;;;9.80;95.70;;;;;;5016317;28;20671;-89
2023/02/17 10:29:05;;;;;;;174.67;161.47;;;9.90;95.80;;;;;;5014348;28;20651;-91
2023/02/17 10:31:56;;;;;;;191.30;176.57;;;9.90;95.90;;;;;;5016692;28;20588;-91
2023/02/17 10:34:35;;;;;;;190.20;175.50;;;9.90;95.80;;;;;;5015080;28;20169;-90
2023/02/17 10:37:13;;;;;;;174.77;161.60;;;9.90;95.80;;;;;;5014683;28;20194;-88
2023/02/17 10:39:46;;;;;;;183.30;169.47;;;9.90;95.90;;;;;;5013646;28;20173;-89
2023/02/17 10:42:29;;;;;;;173.60;161.33;;;9.90;96.00;;;;;;5014382;28;20221;-89
2023/02/17 10:45:02;;;;;;;186.60;173.57;;;9.90;96.00;;;;;;5014009;28;20170;-89
2023/02/17 10:47:28;;;;;;;198.67;184.77;;;10.00;96.00;;;;;;5016060;28;20162;-89
2023/02/17 10:49:55;;;;;;;196.37;183.77;;;9.90;96.00;;;;;;5013927;28;20712;-88
2023/02/17 10:52:35;;;;;;;196.77;183.27;;;10.00;96.00;;;;;;5015444;28;20201;-89
2023/02/17 10:55:07;;;;;;;199.27;185.53;;;10.00;96.00;;;;;;5016780;28;20173;-88
2023/02/17 10:57:37;;;;;;;192.63;179.80;;;10.00;96.00;;;;;;5015996;28;20694;-90
2023/02/17 11:00:05;;;;;;;204.67;190.93;;;9.90;96.00;;;;;;5015659;28;20178;-88
2023/02/17 11:02:40;;;;;;;199.87;186.33;;;10.00;96.10;;;;;;5017002;28;20205;-88
2023/02/17 11:05:06;;;;;;;199.37;186.03;;;10.00;96.00;;;;;;5015748;28;20169;-89
2023/02/17 11:07:42;;;;;;;185.43;174.03;;;10.00;96.00;;;;;;5015590;28;20185;-90
2023/02/17 11:10:28;;;;;;;185.87;173.30;;;10.00;96.00;;;;;;5017040;28;20698;-88
2023/02/17 11:12:56;;;;;;;185.17;172.70;;;10.20;95.90;;;;;;5018263;28;20201;-88
2023/02/17 11:15:43;;;;;;;187.90;174.73;;;10.20;95.90;;;;;;5019043;28;20201;-89
2023/02/17 11:18:25;;;;;;;188.07;174.83;;;10.10;95.80;;;;;;5019118;28;20197;-88
2023/02/17 11:21:06;;;;;;;175.83;163.07;;;10.20;95.80;;;;;;5020775;28;20165;-89
2023/02/17 11:23:33;;;;;;;172.97;161.27;;;10.20;95.60;;;;;;5020314;28;20576;-88
2023/02/17 11:26:08;;;;;;;182.60;170.10;;;10.20;95.60;;;;;;5020853;28;20177;-89
2023/02/17 11:28:33;;;;;;;179.03;166.27;;;10.20;95.50;;;;;;5021973;28;20652;-89
2023/02/17 11:31:03;;;;;;;188.50;174.97;;;10.30;95.40;;;;;;5021075;28;20184;-90
2023/02/17 11:33:38;;;;;;;175.63;162.90;;;10.30;95.30;;;;;;5021372;28;20236;-88
2023/02/17 11:36:05;;;;;;;152.00;140.77;;;10.30;95.30;;;;;;5020860;28;20173;-89
2023/02/17 11:38:48;;;;;;;169.07;157.03;;;10.40;95.00;;;;;;5021394;28;20208;-89
2023/02/17 11:41:14;;;;;;;176.23;163.47;;;10.30;95.00;;;;;;5019949;28;20197;-89
2023/02/17 11:43:53;;;;;;;172.83;160.57;;;10.30;95.10;;;;;;5019407;28;20180;-88
2023/02/17 11:46:39;;;;;;;171.57;159.17;;;10.40;95.10;;;;;;5021072;28;20173;-87
2023/02/17 11:49:46;;;;;;;162.60;151.13;;;10.30;95.10;;;;;;5020238;28;20177;-87
2023/02/17 11:52:47;;;;;;;170.57;158.50;;;10.50;95.20;;;;;;5020049;28;20268;-89
2023/02/17 11:55:35;;;;;;;185.57;172.90;;;10.50;95.20;;;;;;5021591;28;20561;-89
2023/02/17 11:58:21;;;;;;;175.13;163.77;;;10.40;95.30;;;;;;5019369;28;20208;-89
2023/02/17 12:00:53;;;;;;;186.23;173.77;;;10.40;95.40;;;;;;5019323;28;20165;-88
2023/02/17 12:03:46;;;;;;;176.10;164.50;;;10.40;95.50;;;;;;5019731;28;20706;-89
2023/02/17 12:06:20;;;;;;;180.17;168.50;;;10.50;95.50;;;;;;5020087;28;20169;-88
2023/02/17 12:09:02;;;;;;;193.13;180.87;;;10.50;95.50;;;;;;5020111;28;20180;-89
2023/02/17 12:11:52;;;;;;;203.33;190.27;;;10.50;95.50;;;;;;5019529;28;20207;-88
2023/02/17 12:14:37;;;;;;;193.07;181.17;;;10.40;95.50;;;;;;5016747;28;20166;-88
2023/02/17 12:17:34;;;;;;;189.07;176.80;;;10.50;95.50;;;;;;5017817;28;20174;-91
2023/02/17 12:20:15;;;;;;;190.67;179.17;;;10.50;95.60;;;;;;5018434;28;20174;-91
2023/02/17 12:22:50;;;;;;;197.43;184.93;;;10.50;95.70;;;;;;5018481;28;20193;-92
2023/02/17 12:25:25;;;;;;;194.40;182.60;;;10.50;95.80;;;;;;5017996;28;20608;-91
2023/02/17 12:28:23;;;;;;;190.70;178.67;;;10.50;95.70;;;;;;5018378;28;20176;-94
2023/02/17 12:31:09;;;;;;;196.03;183.60;;;10.50;95.70;;;;;;5016853;28;20185;-92
2023/02/17 12:33:42;;;;;;;195.47;183.67;;;10.50;95.70;;;;;;5017146;28;20712;-92
2023/02/17 12:36:14;;;;;;;195.43;182.47;;;10.50;95.70;;;;;;5016859;28;20256;-92